sensor_id;sensor_type;location;lat;lon;timestamp;P1;durP1;ratioP1;P2;durP2;ratioP2
59474;SDS011;45288;51.136;16.928;2024-02-04T00:02:03;20.17;;;4.57;;
59474;SDS011;45288;51.136;16.928;2024-02-04T00:04:54;19.13;;;4.38;;
59474;SDS011;45288;51.136;16.928;2024-02-04T00:07:33;13.85;;;3.55;;
59474;SDS011;45288;51.136;16.928;2024-02-04T00:10:21;20.85;;;4.40;;
59474;SDS011;45288;51.136;16.928;2024-02-04T00:13:04;18.17;;;4.10;;
59474;SDS011;45288;51.136;16.928;2024-02-04T00:15:52;17.67;;;4.00;;
59474;SDS011;45288;51.136;16.928;2024-02-04T00:18:35;16.60;;;3.75;;
59474;SDS011;45288;51.136;16.928;2024-02-04T00:21:30;16.90;;;3.72;;
59474;SDS011;45288;51.136;16.928;2024-02-04T00:24:03;19.92;;;4.18;;
59474;SDS011;45288;51.136;16.928;2024-02-04T00:26:57;19.85;;;3.92;;
59474;SDS011;45288;51.136;16.928;2024-02-04T00:29:31;17.07;;;3.73;;
59474;SDS011;45288;51.136;16.928;2024-02-04T00:32:26;20.47;;;4.23;;
59474;SDS011;45288;51.136;16.928;2024-02-04T00:34:59;19.97;;;4.10;;
59474;SDS011;45288;51.136;16.928;2024-02-04T00:37:54;17.20;;;3.88;;
59474;SDS011;45288;51.136;16.928;2024-02-04T00:40:27;15.65;;;3.45;;
59474;SDS011;45288;51.136;16.928;2024-02-04T00:43:21;20.38;;;4.18;;
59474;SDS011;45288;51.136;16.928;2024-02-04T00:46:00;17.95;;;3.88;;
59474;SDS011;45288;51.136;16.928;2024-02-04T00:48:55;16.48;;;3.85;;
59474;SDS011;45288;51.136;16.928;2024-02-04T00:51:33;17.80;;;3.83;;
59474;SDS011;45288;51.136;16.928;2024-02-04T00:54:28;19.70;;;4.20;;
59474;SDS011;45288;51.136;16.928;2024-02-04T00:57:01;19.00;;;4.20;;
59474;SDS011;45288;51.136;16.928;2024-02-04T00:59:59;21.33;;;4.63;;
59474;SDS011;45288;51.136;16.928;2024-02-04T01:02:33;16.27;;;3.83;;
59474;SDS011;45288;51.136;16.928;2024-02-04T01:05:26;19.77;;;4.50;;
59474;SDS011;45288;51.136;16.928;2024-02-04T01:08:01;18.83;;;4.35;;
59474;SDS011;45288;51.136;16.928;2024-02-04T01:10:57;19.98;;;4.38;;
59474;SDS011;45288;51.136;16.928;2024-02-04T01:13:30;14.57;;;3.95;;
59474;SDS011;45288;51.136;16.928;2024-02-04T01:16:22;23.40;;;5.10;;
59474;SDS011;45288;51.136;16.928;2024-02-04T01:18:57;21.77;;;4.75;;
59474;SDS011;45288;51.136;16.928;2024-02-04T01:21:49;20.55;;;4.53;;
59474;SDS011;45288;51.136;16.928;2024-02-04T01:24:24;17.88;;;4.55;;
59474;SDS011;45288;51.136;16.928;2024-02-04T01:27:16;22.50;;;5.22;;
59474;SDS011;45288;51.136;16.928;2024-02-04T01:29:51;15.35;;;4.05;;
59474;SDS011;45288;51.136;16.928;2024-02-04T01:32:50;19.70;;;4.53;;
59474;SDS011;45288;51.136;16.928;2024-02-04T01:35:25;15.32;;;3.92;;
59474;SDS011;45288;51.136;16.928;2024-02-04T01:38:18;23.98;;;5.25;;
59474;SDS011;45288;51.136;16.928;2024-02-04T01:40:51;19.48;;;4.68;;
59474;SDS011;45288;51.136;16.928;2024-02-04T01:43:45;17.60;;;4.47;;
59474;SDS011;45288;51.136;16.928;2024-02-04T01:46:18;25.73;;;6.30;;
59474;SDS011;45288;51.136;16.928;2024-02-04T01:49:10;23.20;;;5.57;;
59474;SDS011;45288;51.136;16.928;2024-02-04T01:51:43;19.38;;;4.97;;
59474;SDS011;45288;51.136;16.928;2024-02-04T01:54:35;20.77;;;4.80;;
59474;SDS011;45288;51.136;16.928;2024-02-04T01:57:12;25.13;;;5.60;;
59474;SDS011;45288;51.136;16.928;2024-02-04T02:00:10;26.83;;;6.03;;
59474;SDS011;45288;51.136;16.928;2024-02-04T02:02:47;17.48;;;4.65;;
59474;SDS011;45288;51.136;16.928;2024-02-04T02:05:46;16.00;;;4.18;;
59474;SDS011;45288;51.136;16.928;2024-02-04T02:08:19;19.75;;;4.90;;
59474;SDS011;45288;51.136;16.928;2024-02-04T02:11:13;18.02;;;4.70;;
59474;SDS011;45288;51.136;16.928;2024-02-04T02:13:57;20.47;;;4.87;;
59474;SDS011;45288;51.136;16.928;2024-02-04T02:16:55;14.82;;;4.28;;
59474;SDS011;45288;51.136;16.928;2024-02-04T02:22:57;15.98;;;4.55;;
59474;SDS011;45288;51.136;16.928;2024-02-04T02:25:36;19.30;;;5.15;;
59474;SDS011;45288;51.136;16.928;2024-02-04T02:28:30;17.23;;;5.15;;
59474;SDS011;45288;51.136;16.928;2024-02-04T02:31:09;19.97;;;5.67;;
59474;SDS011;45288;51.136;16.928;2024-02-04T02:34:03;17.40;;;5.38;;
59474;SDS011;45288;51.136;16.928;2024-02-04T02:36:45;17.20;;;5.40;;
59474;SDS011;45288;51.136;16.928;2024-02-04T02:39:49;18.55;;;5.32;;
59474;SDS011;45288;51.136;16.928;2024-02-04T02:42:30;14.63;;;4.47;;
59474;SDS011;45288;51.136;16.928;2024-02-04T02:45:25;19.47;;;5.13;;
59474;SDS011;45288;51.136;16.928;2024-02-04T02:48:20;19.10;;;4.97;;
59474;SDS011;45288;51.136;16.928;2024-02-04T02:50:55;15.32;;;4.28;;
59474;SDS011;45288;51.136;16.928;2024-02-04T02:53:49;15.70;;;3.92;;
59474;SDS011;45288;51.136;16.928;2024-02-04T02:56:22;22.02;;;5.05;;
59474;SDS011;45288;51.136;16.928;2024-02-04T02:59:16;19.73;;;4.82;;
59474;SDS011;45288;51.136;16.928;2024-02-04T03:01:49;20.23;;;4.65;;
59474;SDS011;45288;51.136;16.928;2024-02-04T03:04:43;19.58;;;4.50;;
59474;SDS011;45288;51.136;16.928;2024-02-04T03:07:22;20.27;;;4.72;;
59474;SDS011;45288;51.136;16.928;2024-02-04T03:10:14;19.17;;;4.50;;
59474;SDS011;45288;51.136;16.928;2024-02-04T03:12:52;17.80;;;4.13;;
59474;SDS011;45288;51.136;16.928;2024-02-04T03:15:44;19.27;;;4.25;;
59474;SDS011;45288;51.136;16.928;2024-02-04T03:18:19;16.20;;;3.83;;
59474;SDS011;45288;51.136;16.928;2024-02-04T03:21:14;17.27;;;4.23;;
59474;SDS011;45288;51.136;16.928;2024-02-04T03:23:54;19.60;;;4.65;;
59474;SDS011;45288;51.136;16.928;2024-02-04T03:26:41;15.48;;;3.70;;
59474;SDS011;45288;51.136;16.928;2024-02-04T03:29:25;21.15;;;4.63;;
59474;SDS011;45288;51.136;16.928;2024-02-04T03:32:12;17.85;;;4.30;;
59474;SDS011;45288;51.136;16.928;2024-02-04T03:34:52;15.85;;;3.85;;
59474;SDS011;45288;51.136;16.928;2024-02-04T03:37:40;15.40;;;3.75;;
59474;SDS011;45288;51.136;16.928;2024-02-04T03:40:22;19.85;;;4.57;;
59474;SDS011;45288;51.136;16.928;2024-02-04T03:43:07;19.80;;;4.18;;
59474;SDS011;45288;51.136;16.928;2024-02-04T03:45:55;18.98;;;4.32;;
59474;SDS011;45288;51.136;16.928;2024-02-04T03:48:50;16.80;;;3.80;;
59474;SDS011;45288;51.136;16.928;2024-02-04T03:51:25;17.65;;;4.07;;
59474;SDS011;45288;51.136;16.928;2024-02-04T03:54:19;20.10;;;4.43;;
59474;SDS011;45288;51.136;16.928;2024-02-04T03:56:52;18.55;;;3.83;;
59474;SDS011;45288;51.136;16.928;2024-02-04T03:59:47;25.83;;;5.05;;
59474;SDS011;45288;51.136;16.928;2024-02-04T04:02:20;25.67;;;4.95;;
59474;SDS011;45288;51.136;16.928;2024-02-04T04:05:14;25.55;;;4.88;;
59474;SDS011;45288;51.136;16.928;2024-02-04T04:07:52;22.25;;;4.32;;
59474;SDS011;45288;51.136;16.928;2024-02-04T04:10:46;20.33;;;4.00;;
59474;SDS011;45288;51.136;16.928;2024-02-04T04:13:21;28.10;;;5.45;;
59474;SDS011;45288;51.136;16.928;2024-02-04T04:16:15;28.63;;;5.17;;
59474;SDS011;45288;51.136;16.928;2024-02-04T04:18:56;25.33;;;4.70;;
59474;SDS011;45288;51.136;16.928;2024-02-04T04:21:48;20.33;;;4.15;;
59474;SDS011;45288;51.136;16.928;2024-02-04T04:24:34;22.60;;;4.40;;
59474;SDS011;45288;51.136;16.928;2024-02-04T04:27:21;27.55;;;4.80;;
59474;SDS011;45288;51.136;16.928;2024-02-04T04:30:01;26.30;;;5.03;;
59474;SDS011;45288;51.136;16.928;2024-02-04T04:32:49;22.38;;;4.35;;
59474;SDS011;45288;51.136;16.928;2024-02-04T04:35:31;28.03;;;5.23;;
59474;SDS011;45288;51.136;16.928;2024-02-04T04:38:18;33.42;;;6.35;;
59474;SDS011;45288;51.136;16.928;2024-02-04T04:40:58;26.17;;;5.13;;
59474;SDS011;45288;51.136;16.928;2024-02-04T04:43:43;21.83;;;4.50;;
59474;SDS011;45288;51.136;16.928;2024-02-04T04:46:30;20.70;;;4.20;;
59474;SDS011;45288;51.136;16.928;2024-02-04T04:49:25;25.42;;;5.05;;
59474;SDS011;45288;51.136;16.928;2024-02-04T04:52:00;22.92;;;4.38;;
59474;SDS011;45288;51.136;16.928;2024-02-04T04:54:54;25.33;;;4.78;;
59474;SDS011;45288;51.136;16.928;2024-02-04T04:57:28;23.27;;;4.60;;
59474;SDS011;45288;51.136;16.928;2024-02-04T05:00:22;26.17;;;5.20;;
59474;SDS011;45288;51.136;16.928;2024-02-04T05:03:01;27.05;;;5.35;;
59474;SDS011;45288;51.136;16.928;2024-02-04T05:05:55;22.42;;;4.43;;
59474;SDS011;45288;51.136;16.928;2024-02-04T05:08:35;26.35;;;4.85;;
59474;SDS011;45288;51.136;16.928;2024-02-04T05:11:27;24.33;;;4.70;;
59474;SDS011;45288;51.136;16.928;2024-02-04T05:14:04;27.75;;;5.47;;
59474;SDS011;45288;51.136;16.928;2024-02-04T05:16:56;29.33;;;5.35;;
59474;SDS011;45288;51.136;16.928;2024-02-04T05:19:29;26.85;;;5.38;;
59474;SDS011;45288;51.136;16.928;2024-02-04T05:22:21;29.92;;;5.68;;
59474;SDS011;45288;51.136;16.928;2024-02-04T05:25:04;25.48;;;4.95;;
59474;SDS011;45288;51.136;16.928;2024-02-04T05:27:50;22.60;;;4.70;;
59474;SDS011;45288;51.136;16.928;2024-02-04T05:30:30;28.08;;;5.57;;
59474;SDS011;45288;51.136;16.928;2024-02-04T05:33:15;25.58;;;4.88;;
59474;SDS011;45288;51.136;16.928;2024-02-04T05:35:59;22.90;;;4.70;;
59474;SDS011;45288;51.136;16.928;2024-02-04T05:38:45;25.23;;;5.27;;
59474;SDS011;45288;51.136;16.928;2024-02-04T05:41:28;33.92;;;6.55;;
59474;SDS011;45288;51.136;16.928;2024-02-04T05:44:15;30.23;;;6.15;;
59474;SDS011;45288;51.136;16.928;2024-02-04T05:47:03;25.38;;;4.97;;
59474;SDS011;45288;51.136;16.928;2024-02-04T05:49:56;25.08;;;5.32;;
59474;SDS011;45288;51.136;16.928;2024-02-04T05:52:31;26.55;;;5.63;;
59474;SDS011;45288;51.136;16.928;2024-02-04T05:55:23;29.80;;;5.93;;
59474;SDS011;45288;51.136;16.928;2024-02-04T05:57:56;21.52;;;4.85;;
59474;SDS011;45288;51.136;16.928;2024-02-04T06:00:53;31.00;;;5.90;;
59474;SDS011;45288;51.136;16.928;2024-02-04T06:03:26;27.57;;;6.17;;
59474;SDS011;45288;51.136;16.928;2024-02-04T06:06:20;25.13;;;5.45;;
59474;SDS011;45288;51.136;16.928;2024-02-04T06:08:55;26.50;;;5.35;;
59474;SDS011;45288;51.136;16.928;2024-02-04T06:11:49;22.13;;;4.75;;
59474;SDS011;45288;51.136;16.928;2024-02-04T06:14:24;23.38;;;4.75;;
59474;SDS011;45288;51.136;16.928;2024-02-04T06:17:24;27.50;;;5.88;;
59474;SDS011;45288;51.136;16.928;2024-02-04T06:19:59;25.15;;;5.97;;
59474;SDS011;45288;51.136;16.928;2024-02-04T06:22:51;24.57;;;5.77;;
59474;SDS011;45288;51.136;16.928;2024-02-04T06:25:31;29.50;;;7.80;;
59474;SDS011;45288;51.136;16.928;2024-02-04T06:28:16;29.20;;;6.83;;
59474;SDS011;45288;51.136;16.928;2024-02-04T06:30:56;28.20;;;6.55;;
59474;SDS011;45288;51.136;16.928;2024-02-04T06:33:41;24.95;;;5.57;;
59474;SDS011;45288;51.136;16.928;2024-02-04T06:36:21;22.55;;;4.70;;
59474;SDS011;45288;51.136;16.928;2024-02-04T06:39:06;28.08;;;5.63;;
59474;SDS011;45288;51.136;16.928;2024-02-04T06:41:47;24.98;;;5.30;;
59474;SDS011;45288;51.136;16.928;2024-02-04T06:44:34;23.90;;;5.00;;
59474;SDS011;45288;51.136;16.928;2024-02-04T06:47:22;29.63;;;5.78;;
59474;SDS011;45288;51.136;16.928;2024-02-04T06:50:17;27.07;;;5.50;;
59474;SDS011;45288;51.136;16.928;2024-02-04T06:52:50;24.70;;;5.37;;
59474;SDS011;45288;51.136;16.928;2024-02-04T06:55:42;29.77;;;6.35;;
59474;SDS011;45288;51.136;16.928;2024-02-04T06:58:20;25.45;;;5.20;;
59474;SDS011;45288;51.136;16.928;2024-02-04T07:01:14;27.42;;;5.55;;
59474;SDS011;45288;51.136;16.928;2024-02-04T07:03:47;23.10;;;5.10;;
59474;SDS011;45288;51.136;16.928;2024-02-04T07:06:41;23.85;;;5.18;;
59474;SDS011;45288;51.136;16.928;2024-02-04T07:09:14;27.33;;;5.70;;
59474;SDS011;45288;51.136;16.928;2024-02-04T07:12:08;22.75;;;4.90;;
59474;SDS011;45288;51.136;16.928;2024-02-04T07:14:41;19.20;;;4.40;;
59474;SDS011;45288;51.136;16.928;2024-02-04T07:17:37;26.40;;;6.00;;
59474;SDS011;45288;51.136;16.928;2024-02-04T07:20:12;28.30;;;6.07;;
59474;SDS011;45288;51.136;16.928;2024-02-04T07:23:07;23.20;;;5.18;;
59474;SDS011;45288;51.136;16.928;2024-02-04T07:25:43;19.55;;;5.15;;
59474;SDS011;45288;51.136;16.928;2024-02-04T07:28:43;25.85;;;5.82;;
59474;SDS011;45288;51.136;16.928;2024-02-04T07:31:18;24.20;;;6.28;;
59474;SDS011;45288;51.136;16.928;2024-02-04T07:34:10;24.25;;;6.18;;
59474;SDS011;45288;51.136;16.928;2024-02-04T07:36:43;27.13;;;6.47;;
59474;SDS011;45288;51.136;16.928;2024-02-04T07:39:37;24.80;;;5.83;;
59474;SDS011;45288;51.136;16.928;2024-02-04T07:42:12;28.30;;;6.15;;
59474;SDS011;45288;51.136;16.928;2024-02-04T07:45:05;25.85;;;6.10;;
59474;SDS011;45288;51.136;16.928;2024-02-04T07:47:54;24.98;;;5.88;;
59474;SDS011;45288;51.136;16.928;2024-02-04T07:50:47;24.80;;;5.80;;
59474;SDS011;45288;51.136;16.928;2024-02-04T07:53:20;29.80;;;6.47;;
59474;SDS011;45288;51.136;16.928;2024-02-04T07:56:12;29.77;;;6.18;;
59474;SDS011;45288;51.136;16.928;2024-02-04T07:58:45;24.30;;;5.60;;
59474;SDS011;45288;51.136;16.928;2024-02-04T08:01:38;28.83;;;6.38;;
59474;SDS011;45288;51.136;16.928;2024-02-04T08:04:11;29.00;;;6.27;;
59474;SDS011;45288;51.136;16.928;2024-02-04T08:07:04;28.73;;;6.15;;
59474;SDS011;45288;51.136;16.928;2024-02-04T08:09:36;28.35;;;6.30;;
59474;SDS011;45288;51.136;16.928;2024-02-04T08:12:28;29.88;;;6.63;;
59474;SDS011;45288;51.136;16.928;2024-02-04T08:15:01;24.80;;;5.75;;
59474;SDS011;45288;51.136;16.928;2024-02-04T08:17:55;31.55;;;7.18;;
59474;SDS011;45288;51.136;16.928;2024-02-04T08:20:30;27.23;;;5.90;;
59474;SDS011;45288;51.136;16.928;2024-02-04T08:23:24;29.42;;;6.47;;
59474;SDS011;45288;51.136;16.928;2024-02-04T08:25:58;25.17;;;5.97;;
59474;SDS011;45288;51.136;16.928;2024-02-04T08:28:51;23.83;;;5.13;;
59474;SDS011;45288;51.136;16.928;2024-02-04T08:31:24;29.33;;;6.38;;
59474;SDS011;45288;51.136;16.928;2024-02-04T08:34:16;30.52;;;6.30;;
59474;SDS011;45288;51.136;16.928;2024-02-04T08:36:52;22.45;;;5.05;;
59474;SDS011;45288;51.136;16.928;2024-02-04T08:39:44;27.70;;;5.80;;
59474;SDS011;45288;51.136;16.928;2024-02-04T08:42:19;24.30;;;5.70;;
59474;SDS011;45288;51.136;16.928;2024-02-04T08:45:11;23.83;;;5.60;;
59474;SDS011;45288;51.136;16.928;2024-02-04T08:47:57;24.48;;;6.10;;
59474;SDS011;45288;51.136;16.928;2024-02-04T08:50:50;28.08;;;5.53;;
59474;SDS011;45288;51.136;16.928;2024-02-04T08:53:26;21.42;;;4.82;;
59474;SDS011;45288;51.136;16.928;2024-02-04T08:56:18;22.63;;;5.05;;
59474;SDS011;45288;51.136;16.928;2024-02-04T08:58:51;22.88;;;4.80;;
59474;SDS011;45288;51.136;16.928;2024-02-04T09:01:46;19.35;;;4.50;;
59474;SDS011;45288;51.136;16.928;2024-02-04T09:04:21;25.20;;;5.47;;
59474;SDS011;45288;51.136;16.928;2024-02-04T09:07:15;26.10;;;5.43;;
59474;SDS011;45288;51.136;16.928;2024-02-04T09:09:50;27.98;;;5.63;;
59474;SDS011;45288;51.136;16.928;2024-02-04T09:12:42;24.75;;;5.22;;
59474;SDS011;45288;51.136;16.928;2024-02-04T09:15:17;29.15;;;6.20;;
59474;SDS011;45288;51.136;16.928;2024-02-04T09:18:11;26.00;;;5.38;;
59474;SDS011;45288;51.136;16.928;2024-02-04T09:20:44;21.20;;;4.57;;
59474;SDS011;45288;51.136;16.928;2024-02-04T09:23:37;36.27;;;7.10;;
59474;SDS011;45288;51.136;16.928;2024-02-04T09:26:10;21.53;;;4.80;;
59474;SDS011;45288;51.136;16.928;2024-02-04T09:29:04;23.08;;;5.25;;
59474;SDS011;45288;51.136;16.928;2024-02-04T09:31:37;27.25;;;5.45;;
59474;SDS011;45288;51.136;16.928;2024-02-04T09:34:29;26.80;;;5.63;;
59474;SDS011;45288;51.136;16.928;2024-02-04T09:37:02;17.95;;;5.05;;
59474;SDS011;45288;51.136;16.928;2024-02-04T09:39:54;20.80;;;5.03;;
59474;SDS011;45288;51.136;16.928;2024-02-04T09:42:28;24.50;;;5.45;;
59474;SDS011;45288;51.136;16.928;2024-02-04T09:45:20;24.47;;;5.57;;
59474;SDS011;45288;51.136;16.928;2024-02-04T09:48:17;23.02;;;5.55;;
59474;SDS011;45288;51.136;16.928;2024-02-04T09:50:52;17.85;;;4.53;;
59474;SDS011;45288;51.136;16.928;2024-02-04T09:53:45;17.65;;;4.28;;
59474;SDS011;45288;51.136;16.928;2024-02-04T09:56:24;23.50;;;5.50;;
59474;SDS011;45288;51.136;16.928;2024-02-04T09:59:19;26.50;;;5.53;;
59474;SDS011;45288;51.136;16.928;2024-02-04T10:01:52;16.85;;;4.50;;
59474;SDS011;45288;51.136;16.928;2024-02-04T10:04:45;21.37;;;4.90;;
59474;SDS011;45288;51.136;16.928;2024-02-04T10:07:18;23.40;;;5.13;;
59474;SDS011;45288;51.136;16.928;2024-02-04T10:10:13;22.85;;;5.50;;
59474;SDS011;45288;51.136;16.928;2024-02-04T10:12:45;17.10;;;4.35;;
59474;SDS011;45288;51.136;16.928;2024-02-04T10:15:38;23.13;;;5.47;;
59474;SDS011;45288;51.136;16.928;2024-02-04T10:18:10;22.63;;;5.35;;
59474;SDS011;45288;51.136;16.928;2024-02-04T10:21:13;21.67;;;5.28;;
59474;SDS011;45288;51.136;16.928;2024-02-04T10:23:59;25.23;;;5.30;;
59474;SDS011;45288;51.136;16.928;2024-02-04T10:26:51;24.98;;;5.72;;
59474;SDS011;45288;51.136;16.928;2024-02-04T10:29:33;21.02;;;5.20;;
59474;SDS011;45288;51.136;16.928;2024-02-04T10:32:21;32.17;;;6.80;;
59474;SDS011;45288;51.136;16.928;2024-02-04T10:35:01;26.00;;;6.22;;
59474;SDS011;45288;51.136;16.928;2024-02-04T10:37:46;33.20;;;7.47;;
59474;SDS011;45288;51.136;16.928;2024-02-04T10:40:28;26.38;;;6.82;;
59474;SDS011;45288;51.136;16.928;2024-02-04T10:43:14;26.10;;;6.90;;
59474;SDS011;45288;51.136;16.928;2024-02-04T10:45:56;22.70;;;6.32;;
59474;SDS011;45288;51.136;16.928;2024-02-04T10:48:54;34.60;;;8.43;;
59474;SDS011;45288;51.136;16.928;2024-02-04T10:51:28;22.90;;;6.25;;
59474;SDS011;45288;51.136;16.928;2024-02-04T10:54:22;25.67;;;6.68;;
59474;SDS011;45288;51.136;16.928;2024-02-04T10:57:00;23.45;;;6.55;;
59474;SDS011;45288;51.136;16.928;2024-02-04T10:59:57;24.58;;;7.10;;
59474;SDS011;45288;51.136;16.928;2024-02-04T11:02:31;22.13;;;6.63;;
59474;SDS011;45288;51.136;16.928;2024-02-04T11:05:26;26.75;;;7.43;;
59474;SDS011;45288;51.136;16.928;2024-02-04T11:08:00;18.65;;;6.53;;
59474;SDS011;45288;51.136;16.928;2024-02-04T11:10:53;21.17;;;6.82;;
59474;SDS011;45288;51.136;16.928;2024-02-04T11:13:26;28.08;;;7.90;;
59474;SDS011;45288;51.136;16.928;2024-02-04T11:16:31;21.35;;;7.07;;
59474;SDS011;45288;51.136;16.928;2024-02-04T11:25:41;20.98;;;6.97;;
59474;SDS011;45288;51.136;16.928;2024-02-04T11:28:35;23.17;;;7.45;;
59474;SDS011;45288;51.136;16.928;2024-02-04T11:31:17;21.25;;;6.93;;
59474;SDS011;45288;51.136;16.928;2024-02-04T11:34:11;21.13;;;7.47;;
59474;SDS011;45288;51.136;16.928;2024-02-04T11:36:49;23.67;;;7.17;;
59474;SDS011;45288;51.136;16.928;2024-02-04T11:39:53;27.73;;;8.27;;
59474;SDS011;45288;51.136;16.928;2024-02-04T11:42:33;20.55;;;7.03;;
59474;SDS011;45288;51.136;16.928;2024-02-04T11:45:26;20.23;;;6.57;;
59474;SDS011;45288;51.136;16.928;2024-02-04T11:48:17;28.45;;;7.97;;
59474;SDS011;45288;51.136;16.928;2024-02-04T11:51:10;19.38;;;6.47;;
59474;SDS011;45288;51.136;16.928;2024-02-04T11:53:44;25.10;;;7.43;;
59474;SDS011;45288;51.136;16.928;2024-02-04T11:56:37;22.52;;;7.22;;
59474;SDS011;45288;51.136;16.928;2024-02-04T11:59:09;18.20;;;6.20;;
59474;SDS011;45288;51.136;16.928;2024-02-04T12:02:08;19.10;;;6.63;;
59474;SDS011;45288;51.136;16.928;2024-02-04T12:04:40;21.95;;;6.95;;
59474;SDS011;45288;51.136;16.928;2024-02-04T12:07:35;19.95;;;6.50;;
59474;SDS011;45288;51.136;16.928;2024-02-04T12:10:12;18.65;;;6.68;;
59474;SDS011;45288;51.136;16.928;2024-02-04T12:13:05;14.38;;;5.05;;
59474;SDS011;45288;51.136;16.928;2024-02-04T12:15:45;20.15;;;6.38;;
59474;SDS011;45288;51.136;16.928;2024-02-04T12:18:47;20.27;;;6.40;;
59474;SDS011;45288;51.136;16.928;2024-02-04T12:21:22;19.08;;;5.90;;
59474;SDS011;45288;51.136;16.928;2024-02-04T12:24:15;16.20;;;5.47;;
59474;SDS011;45288;51.136;16.928;2024-02-04T12:26:55;15.55;;;5.50;;
59474;SDS011;45288;51.136;16.928;2024-02-04T12:29:52;18.83;;;5.88;;
59474;SDS011;45288;51.136;16.928;2024-02-04T12:32:26;18.40;;;5.90;;
59474;SDS011;45288;51.136;16.928;2024-02-04T12:35:19;17.77;;;5.45;;
59474;SDS011;45288;51.136;16.928;2024-02-04T12:37:56;16.80;;;5.80;;
59474;SDS011;45288;51.136;16.928;2024-02-04T12:40:50;20.27;;;6.40;;
59474;SDS011;45288;51.136;16.928;2024-02-04T12:43:24;22.50;;;6.82;;
59474;SDS011;45288;51.136;16.928;2024-02-04T12:46:17;16.92;;;5.72;;
59474;SDS011;45288;51.136;16.928;2024-02-04T12:49:16;16.60;;;5.60;;
59474;SDS011;45288;51.136;16.928;2024-02-04T12:52:05;18.42;;;5.93;;
59474;SDS011;45288;51.136;16.928;2024-02-04T12:54:58;16.98;;;5.38;;
59474;SDS011;45288;51.136;16.928;2024-02-04T12:57:39;18.17;;;5.33;;
59474;SDS011;45288;51.136;16.928;2024-02-04T13:00:25;16.40;;;5.27;;
59474;SDS011;45288;51.136;16.928;2024-02-04T13:03:05;15.15;;;5.45;;
59474;SDS011;45288;51.136;16.928;2024-02-04T13:05:57;19.90;;;5.85;;
59474;SDS011;45288;51.136;16.928;2024-02-04T13:08:40;19.17;;;5.93;;
59474;SDS011;45288;51.136;16.928;2024-02-04T13:11:26;15.10;;;4.65;;
59474;SDS011;45288;51.136;16.928;2024-02-04T13:14:05;23.50;;;6.43;;
59474;SDS011;45288;51.136;16.928;2024-02-04T13:16:51;17.92;;;5.30;;
59474;SDS011;45288;51.136;16.928;2024-02-04T13:19:37;15.30;;;4.55;;
59474;SDS011;45288;51.136;16.928;2024-02-04T13:22:24;18.23;;;5.35;;
59474;SDS011;45288;51.136;16.928;2024-02-04T13:25:03;16.40;;;5.13;;
59474;SDS011;45288;51.136;16.928;2024-02-04T13:27:49;18.30;;;5.45;;
59474;SDS011;45288;51.136;16.928;2024-02-04T13:30:29;16.83;;;5.03;;
59474;SDS011;45288;51.136;16.928;2024-02-04T13:33:15;17.50;;;5.20;;
59474;SDS011;45288;51.136;16.928;2024-02-04T13:35:54;21.02;;;5.72;;
59474;SDS011;45288;51.136;16.928;2024-02-04T13:38:40;16.83;;;5.05;;
59474;SDS011;45288;51.136;16.928;2024-02-04T13:41:19;19.33;;;5.25;;
59474;SDS011;45288;51.136;16.928;2024-02-04T13:44:05;16.88;;;4.82;;
59474;SDS011;45288;51.136;16.928;2024-02-04T13:46:51;20.35;;;5.57;;
59474;SDS011;45288;51.136;16.928;2024-02-04T13:49:44;14.48;;;4.82;;
59474;SDS011;45288;51.136;16.928;2024-02-04T13:52:16;17.50;;;5.28;;
59474;SDS011;45288;51.136;16.928;2024-02-04T13:55:09;23.75;;;6.03;;
59474;SDS011;45288;51.136;16.928;2024-02-04T13:57:43;18.33;;;5.13;;
59474;SDS011;45288;51.136;16.928;2024-02-04T14:00:36;18.50;;;5.40;;
59474;SDS011;45288;51.136;16.928;2024-02-04T14:03:09;18.08;;;5.82;;
59474;SDS011;45288;51.136;16.928;2024-02-04T14:06:04;17.53;;;4.80;;
59474;SDS011;45288;51.136;16.928;2024-02-04T14:08:36;19.25;;;5.75;;
59474;SDS011;45288;51.136;16.928;2024-02-04T14:11:29;23.88;;;7.60;;
59474;SDS011;45288;51.136;16.928;2024-02-04T14:14:03;22.58;;;6.78;;
59474;SDS011;45288;51.136;16.928;2024-02-04T14:17:00;16.98;;;5.43;;
59474;SDS011;45288;51.136;16.928;2024-02-04T14:19:32;19.55;;;5.35;;
59474;SDS011;45288;51.136;16.928;2024-02-04T14:22:27;20.90;;;4.78;;
59474;SDS011;45288;51.136;16.928;2024-02-04T14:24:59;16.85;;;4.32;;
59474;SDS011;45288;51.136;16.928;2024-02-04T14:27:52;19.67;;;5.35;;
59474;SDS011;45288;51.136;16.928;2024-02-04T14:30:24;19.65;;;5.10;;
59474;SDS011;45288;51.136;16.928;2024-02-04T14:33:23;16.37;;;4.13;;
59474;SDS011;45288;51.136;16.928;2024-02-04T14:36:02;16.85;;;4.20;;
59474;SDS011;45288;51.136;16.928;2024-02-04T14:38:51;17.92;;;4.75;;
59474;SDS011;45288;51.136;16.928;2024-02-04T14:41:30;15.63;;;3.77;;
59474;SDS011;45288;51.136;16.928;2024-02-04T14:44:18;19.57;;;4.53;;
59474;SDS011;45288;51.136;16.928;2024-02-04T14:47:00;15.43;;;4.00;;
59474;SDS011;45288;51.136;16.928;2024-02-04T14:49:50;23.92;;;5.15;;
59474;SDS011;45288;51.136;16.928;2024-02-04T14:52:29;22.48;;;4.93;;
59474;SDS011;45288;51.136;16.928;2024-02-04T14:55:15;21.77;;;4.68;;
59474;SDS011;45288;51.136;16.928;2024-02-04T14:57:54;18.80;;;3.85;;
59474;SDS011;45288;51.136;16.928;2024-02-04T15:00:33;24.48;;;5.53;;
59474;SDS011;45288;51.136;16.928;2024-02-04T15:02:59;17.75;;;4.45;;
59474;SDS011;45288;51.136;16.928;2024-02-04T15:05:25;22.03;;;5.10;;
59474;SDS011;45288;51.136;16.928;2024-02-04T15:07:51;17.45;;;4.30;;
59474;SDS011;45288;51.136;16.928;2024-02-04T15:10:17;21.90;;;4.95;;
59474;SDS011;45288;51.136;16.928;2024-02-04T15:12:45;20.97;;;4.70;;
59474;SDS011;45288;51.136;16.928;2024-02-04T15:15:11;17.27;;;4.20;;
59474;SDS011;45288;51.136;16.928;2024-02-04T15:17:37;22.90;;;5.22;;
59474;SDS011;45288;51.136;16.928;2024-02-04T15:20:03;19.65;;;4.53;;
59474;SDS011;45288;51.136;16.928;2024-02-04T15:22:32;23.57;;;5.50;;
59474;SDS011;45288;51.136;16.928;2024-02-04T15:24:58;20.20;;;4.90;;
59474;SDS011;45288;51.136;16.928;2024-02-04T15:27:25;24.52;;;5.38;;
59474;SDS011;45288;51.136;16.928;2024-02-04T15:29:52;22.55;;;5.03;;
59474;SDS011;45288;51.136;16.928;2024-02-04T15:32:20;21.98;;;5.05;;
59474;SDS011;45288;51.136;16.928;2024-02-04T15:34:47;21.45;;;4.70;;
59474;SDS011;45288;51.136;16.928;2024-02-04T15:37:13;19.00;;;4.43;;
59474;SDS011;45288;51.136;16.928;2024-02-04T15:39:39;22.52;;;5.07;;
59474;SDS011;45288;51.136;16.928;2024-02-04T15:42:06;17.85;;;4.35;;
59474;SDS011;45288;51.136;16.928;2024-02-04T15:44:33;24.05;;;5.20;;
59474;SDS011;45288;51.136;16.928;2024-02-04T15:46:59;22.50;;;4.97;;
59474;SDS011;45288;51.136;16.928;2024-02-04T15:49:27;21.15;;;4.57;;
59474;SDS011;45288;51.136;16.928;2024-02-04T15:51:53;22.75;;;4.97;;
59474;SDS011;45288;51.136;16.928;2024-02-04T15:54:19;22.80;;;5.55;;
59474;SDS011;45288;51.136;16.928;2024-02-04T15:56:48;29.27;;;6.85;;
59474;SDS011;45288;51.136;16.928;2024-02-04T15:59:21;23.13;;;5.90;;
59474;SDS011;45288;51.136;16.928;2024-02-04T16:01:51;26.45;;;6.05;;
59474;SDS011;45288;51.136;16.928;2024-02-04T16:04:18;23.90;;;7.00;;
59474;SDS011;45288;51.136;16.928;2024-02-04T16:06:44;23.33;;;6.20;;